Time;durP1;ratioP1;P1;durP2;ratioP2;P2;SDS_P1;SDS_P2;PMS_P1;PMS_P2;Temp;Humidity;BMP_temperature;BMP_pressure;BME280_temperature;BME280_humidity;BME280_pressure;Samples;Min_cycle;Max_cycle;Signal;HPM_P1;HPM_P2
2022/09/22 00:01:38;;;;;;;2.60;2.40;;;9.80;1.00;;;;;;5112578;28;20396;-75
2022/09/22 00:04:08;;;;;;;2.70;2.50;;;9.80;1.00;;;;;;5080192;28;20209;-70
2022/09/22 00:06:50;;;;;;;2.70;2.60;;;9.70;1.00;;;;;;5077377;28;20425;-74
2022/09/22 00:09:19;;;;;;;2.70;2.50;;;9.70;1.00;;;;;;5112716;28;20401;-74
2022/09/22 00:11:48;;;;;;;3.23;2.93;;;9.70;1.00;;;;;;5107467;28;20427;-71
2022/09/22 00:14:17;;;;;;;4.73;2.77;;;9.60;1.00;;;;;;5095726;28;20930;-71
2022/09/22 00:16:50;;;;;;;2.87;2.67;;;9.60;1.00;;;;;;5101393;28;20449;-75
2022/09/22 00:19:20;;;;;;;3.10;2.77;;;9.60;1.00;;;;;;5095966;28;20382;-73
2022/09/22 00:21:46;;;;;;;2.50;2.30;;;9.50;1.00;;;;;;5102459;28;20402;-71
2022/09/22 00:24:12;;;;;;;2.67;2.47;;;9.50;1.00;;;;;;5111937;28;20433;-74
2022/09/22 00:26:38;;;;;;;3.17;2.90;;;9.50;1.00;;;;;;5096919;28;20508;-74
2022/09/22 00:29:08;;;;;;;2.93;2.73;;;9.50;1.00;;;;;;5095865;28;20487;-74
2022/09/22 00:31:36;;;;;;;2.30;2.17;;;9.50;1.00;;;;;;5108054;28;20658;-74
2022/09/22 00:34:02;;;;;;;5.43;2.40;;;9.50;1.00;;;;;;5114048;28;20428;-74
2022/09/22 00:36:28;;;;;;;8.43;4.73;;;9.50;1.00;;;;;;5090834;28;20785;-71
2022/09/22 00:38:55;;;;;;;3.30;3.10;;;9.40;1.00;;;;;;5114520;28;20405;-71
2022/09/22 00:41:25;;;;;;;2.80;2.60;;;9.40;1.00;;;;;;5109612;28;20176;-74
2022/09/22 00:44:25;;;;;;;2.67;2.50;;;9.40;1.00;;;;;;5096727;28;20377;-72
2022/09/22 00:47:09;;;;;;;3.00;2.70;;;9.30;1.00;;;;;;5089206;28;20967;-74
2022/09/22 00:49:43;;;;;;;2.53;2.33;;;9.40;1.00;;;;;;5115716;28;20890;-74
2022/09/22 00:52:09;;;;;;;2.73;2.57;;;9.30;1.00;;;;;;5111602;28;20429;-74
2022/09/22 00:54:36;;;;;;;2.93;2.73;;;9.30;1.00;;;;;;5109889;28;20524;-72
2022/09/22 00:57:16;;;;;;;2.40;2.30;;;9.20;1.00;;;;;;5091886;28;20452;-74
2022/09/22 00:59:45;;;;;;;2.80;2.60;;;9.20;1.00;;;;;;5115320;28;20775;-71
2022/09/22 01:02:10;;;;;;;3.00;2.80;;;9.20;1.00;;;;;;5110892;28;20428;-74
2022/09/22 01:04:36;;;;;;;3.03;2.83;;;9.10;1.00;;;;;;5113749;28;20731;-72
2022/09/22 01:07:03;;;;;;;2.70;2.50;;;9.10;1.00;;;;;;5109987;28;20708;-74
2022/09/22 01:09:31;;;;;;;2.90;2.70;;;9.00;1.00;;;;;;5114454;28;20177;-72
2022/09/22 01:11:58;;;;;;;6.50;3.67;;;9.00;1.00;;;;;;5111434;28;20416;-74
2022/09/22 01:14:33;;;;;;;3.60;2.40;;;9.00;1.00;;;;;;5103542;28;20486;-75
2022/09/22 01:17:33;;;;;;;2.97;2.70;;;8.90;1.00;;;;;;5092035;28;20407;-75
2022/09/22 01:20:31;;;;;;;3.43;3.13;;;8.90;1.00;;;;;;5115042;28;20408;-74
2022/09/22 01:23:15;;;;;;;3.30;2.50;;;8.90;1.00;;;;;;5094721;28;20398;-74
2022/09/22 01:25:49;;;;;;;2.90;2.70;;;8.80;1.00;;;;;;5097669;28;20561;-74
2022/09/22 01:28:51;;;;;;;3.00;2.73;;;8.80;1.00;;;;;;5114128;28;20412;-71
2022/09/22 01:31:25;;;;;;;4.77;3.00;;;8.80;1.00;;;;;;5107123;28;20404;-71
2022/09/22 01:34:12;;;;;;;3.80;3.23;;;8.80;1.00;;;;;;5075273;28;20510;-73
2022/09/22 01:36:45;;;;;;;3.27;3.00;;;8.80;1.00;;;;;;5108561;28;20452;-71
2022/09/22 01:39:24;;;;;;;3.13;2.93;;;8.80;1.00;;;;;;5114918;28;20374;-72
2022/09/22 01:42:00;;;;;;;3.03;2.77;;;8.70;1.00;;;;;;5107110;28;20409;-71
2022/09/22 01:44:34;;;;;;;3.60;3.20;;;8.70;1.00;;;;;;5112275;28;20762;-71
2022/09/22 01:47:25;;;;;;;4.90;3.10;;;8.70;1.00;;;;;;5108471;28;20405;-70
2022/09/22 01:49:55;;;;;;;3.17;2.97;;;8.60;1.00;;;;;;5085132;28;20537;-72
2022/09/22 01:52:26;;;;;;;4.17;3.70;;;8.60;1.00;;;;;;5104344;28;20440;-74
2022/09/22 01:55:03;;;;;;;4.13;3.73;;;8.60;1.00;;;;;;5108412;28;20467;-74
2022/09/22 01:57:47;;;;;;;3.67;3.40;;;8.60;1.00;;;;;;5096747;28;20437;-75
2022/09/22 02:00:14;;;;;;;3.40;3.13;;;8.60;1.00;;;;;;5111848;28;20992;-75
2022/09/22 02:02:59;;;;;;;3.10;2.83;;;8.60;1.00;;;;;;5093465;28;20513;-70
2022/09/22 02:05:39;;;;;;;3.63;3.37;;;8.50;1.00;;;;;;5074534;28;20492;-74
2022/09/22 02:08:12;;;;;;;4.23;3.47;;;8.50;1.00;;;;;;5097492;28;20399;-74
2022/09/22 02:10:44;;;;;;;4.30;2.77;;;8.50;1.00;;;;;;5111215;28;20494;-71
2022/09/22 02:13:10;;;;;;;4.00;3.70;;;8.50;1.00;;;;;;5076056;28;20389;-74
2022/09/22 02:18:46;;;;;;;2.77;2.57;;;8.40;1.00;;;;;;5099677;28;20446;-70
2022/09/22 02:21:14;;;;;;;3.60;3.37;;;8.40;1.00;;;;;;5075231;28;20397;-71
2022/09/22 02:23:41;;;;;;;3.03;2.83;;;8.40;1.00;;;;;;5105782;28;20419;-70
2022/09/22 02:26:08;;;;;;;3.63;3.40;;;8.30;1.00;;;;;;5111058;28;20471;-70
2022/09/22 02:28:37;;;;;;;3.20;3.00;;;8.30;1.00;;;;;;5110327;28;20403;-74
2022/09/22 02:31:05;;;;;;;3.67;3.37;;;8.30;1.00;;;;;;5099957;28;20416;-75
2022/09/22 02:33:34;;;;;;;3.90;3.30;;;8.30;1.00;;;;;;5093168;28;20388;-75
2022/09/22 02:36:27;;;;;;;3.73;3.43;;;8.30;1.00;;;;;;5092848;28;20418;-70
2022/09/22 02:39:21;;;;;;;3.80;3.50;;;8.30;1.00;;;;;;5077012;28;20470;-75
2022/09/22 02:41:56;;;;;;;3.83;3.53;;;8.30;1.00;;;;;;5113005;28;20744;-70
2022/09/22 02:44:30;;;;;;;3.10;2.60;;;8.20;1.00;;;;;;5112355;28;20379;-74
2022/09/22 02:47:12;;;;;;;2.80;2.60;;;8.20;1.00;;;;;;5094167;28;20412;-70
2022/09/22 02:49:39;;;;;;;3.57;3.23;;;8.20;1.00;;;;;;5094542;28;20421;-70
2022/09/22 02:52:12;;;;;;;3.30;3.10;;;8.20;1.00;;;;;;5102399;28;20418;-70
2022/09/22 02:54:38;;;;;;;3.57;3.27;;;8.10;1.00;;;;;;5112388;28;20485;-70
2022/09/22 02:57:05;;;;;;;4.17;3.30;;;8.20;1.00;;;;;;5094792;28;20410;-75
2022/09/22 02:59:31;;;;;;;3.80;3.10;;;8.10;1.00;;;;;;5095482;28;20277;-70
2022/09/22 03:01:57;;;;;;;4.37;3.67;;;8.10;1.00;;;;;;5094772;28;20524;-72
2022/09/22 03:04:23;;;;;;;3.77;3.47;;;8.10;1.00;;;;;;5092001;28;20402;-70
2022/09/22 03:06:48;;;;;;;3.73;3.43;;;8.00;1.00;;;;;;5092788;28;20652;-75
2022/09/22 03:09:16;;;;;;;3.33;3.13;;;8.10;1.00;;;;;;5085389;28;20198;-70
2022/09/22 03:11:42;;;;;;;4.70;3.67;;;8.00;1.00;;;;;;5113520;28;20161;-75
2022/09/22 03:14:07;;;;;;;5.10;4.40;;;8.00;1.00;;;;;;5077052;28;20541;-75
2022/09/22 03:16:33;;;;;;;3.93;3.63;;;8.00;1.00;;;;;;5104219;28;20284;-74
2022/09/22 03:18:59;;;;;;;3.47;3.17;;;8.10;1.00;;;;;;5076977;28;20200;-74
2022/09/22 03:21:24;;;;;;;4.17;3.87;;;8.10;1.00;;;;;;5099863;28;20179;-75
2022/09/22 03:23:50;;;;;;;3.37;3.17;;;8.00;1.00;;;;;;5100699;28;20268;-71
2022/09/22 03:26:16;;;;;;;4.93;3.87;;;8.00;1.00;;;;;;5105836;28;20209;-75
2022/09/22 03:28:42;;;;;;;4.00;3.70;;;8.00;1.00;;;;;;5099064;28;20191;-70
2022/09/22 03:31:10;;;;;;;5.10;4.27;;;8.00;1.00;;;;;;5100182;28;20181;-75
2022/09/22 03:33:36;;;;;;;3.83;3.53;;;7.90;1.00;;;;;;5103943;28;20497;-70
2022/09/22 03:36:02;;;;;;;3.83;3.43;;;8.00;1.00;;;;;;5107124;28;20433;-69
2022/09/22 03:38:28;;;;;;;3.87;3.57;;;7.90;1.00;;;;;;5093038;28;20908;-73
2022/09/22 03:40:53;;;;;;;4.33;3.43;;;7.90;1.00;;;;;;5115158;28;20409;-69
2022/09/22 03:43:19;;;;;;;3.33;3.07;;;7.90;1.00;;;;;;5104724;28;20298;-75
2022/09/22 03:45:45;;;;;;;3.30;2.57;;;7.90;1.00;;;;;;5115078;28;20211;-70
2022/09/22 03:48:11;;;;;;;3.57;3.27;;;7.80;1.00;;;;;;5105597;28;20462;-74
2022/09/22 03:50:37;;;;;;;3.60;3.37;;;7.80;1.00;;;;;;5113041;28;20176;-70
2022/09/22 03:53:02;;;;;;;3.60;3.40;;;7.80;1.00;;;;;;5086237;28;20623;-74
2022/09/22 03:55:28;;;;;;;5.10;3.90;;;7.80;1.00;;;;;;5097083;28;20206;-70
2022/09/22 03:57:54;;;;;;;4.77;4.47;;;7.80;1.00;;;;;;5103019;28;20641;-74
2022/09/22 04:00:20;;;;;;;3.87;3.57;;;7.80;1.00;;;;;;5096828;28;20422;-70
2022/09/22 04:02:45;;;;;;;3.33;3.03;;;7.80;1.00;;;;;;5096210;28;20644;-74
2022/09/22 04:05:11;;;;;;;3.50;3.20;;;7.80;1.00;;;;;;5079895;28;20773;-70
2022/09/22 04:07:37;;;;;;;4.77;3.53;;;7.80;1.00;;;;;;5102588;28;20222;-71
2022/09/22 04:10:04;;;;;;;3.03;2.87;;;7.70;1.00;;;;;;5096383;28;20306;-70
2022/09/22 04:12:29;;;;;;;3.20;2.90;;;7.70;1.00;;;;;;5095896;28;20406;-74
2022/09/22 04:14:55;;;;;;;3.23;3.03;;;7.70;1.00;;;;;;5094768;28;20446;-74
2022/09/22 04:17:21;;;;;;;3.47;3.27;;;7.70;1.00;;;;;;5088775;28;20189;-74
2022/09/22 04:19:46;;;;;;;3.70;2.77;;;7.70;1.00;;;;;;5116619;28;20531;-70
2022/09/22 04:22:13;;;;;;;3.53;3.27;;;7.60;1.00;;;;;;5098585;28;20275;-70
2022/09/22 04:24:38;;;;;;;3.33;3.13;;;7.60;1.00;;;;;;5094880;28;20185;-74
2022/09/22 04:27:05;;;;;;;3.67;3.47;;;7.60;1.00;;;;;;5077385;28;20785;-74
2022/09/22 04:29:31;;;;;;;3.80;3.60;;;7.50;1.00;;;;;;5095878;28;20177;-70
2022/09/22 04:31:56;;;;;;;3.00;2.77;;;7.50;1.00;;;;;;5077371;28;20424;-73
2022/09/22 04:34:22;;;;;;;3.90;2.73;;;7.50;1.00;;;;;;5095371;28;20193;-74
2022/09/22 04:36:48;;;;;;;3.47;3.17;;;7.50;1.00;;;;;;5095386;28;20220;-74
2022/09/22 04:39:13;;;;;;;3.90;3.60;;;7.50;1.00;;;;;;5095317;28;20209;-70
2022/09/22 04:41:39;;;;;;;3.13;2.93;;;7.50;1.00;;;;;;5097520;28;20178;-74
2022/09/22 04:44:04;;;;;;;4.27;3.97;;;7.50;1.00;;;;;;5115038;28;20251;-70
2022/09/22 04:46:30;;;;;;;8.20;3.37;;;7.50;1.00;;;;;;5107699;28;20231;-74
2022/09/22 04:48:56;;;;;;;4.53;3.30;;;7.40;1.00;;;;;;5094784;28;20177;-70
2022/09/22 04:51:21;;;;;;;3.30;3.10;;;7.40;1.00;;;;;;5102397;28;20190;-74
2022/09/22 04:53:47;;;;;;;4.70;3.20;;;7.40;1.00;;;;;;5110759;28;20662;-70
2022/09/22 04:56:12;;;;;;;3.47;3.27;;;7.40;1.00;;;;;;5109143;28;20194;-69
2022/09/22 04:58:38;;;;;;;3.37;3.10;;;7.40;1.00;;;;;;5110043;28;20541;-70
2022/09/22 05:01:05;;;;;;;4.20;3.27;;;7.40;1.00;;;;;;5110259;28;20617;-73
2022/09/22 05:03:31;;;;;;;7.07;5.80;;;7.40;1.00;;;;;;5096113;28;20169;-73
2022/09/22 05:05:57;;;;;;;21.77;12.43;;;7.40;1.00;;;;;;5093838;28;20463;-74
2022/09/22 05:08:23;;;;;;;15.27;10.40;;;7.40;1.00;;;;;;5075922;28;20539;-70
2022/09/22 05:10:49;;;;;;;12.50;8.23;;;7.40;1.00;;;;;;5109016;28;20201;-72
2022/09/22 05:13:14;;;;;;;6.80;6.03;;;7.40;1.00;;;;;;5113869;28;20439;-70
2022/09/22 05:15:40;;;;;;;9.63;6.47;;;7.40;1.00;;;;;;5094875;28;20247;-74
2022/09/22 05:18:07;;;;;;;7.00;4.83;;;7.40;1.00;;;;;;5103138;28;20182;-74
2022/09/22 05:20:33;;;;;;;8.60;5.00;;;7.40;1.00;;;;;;5110115;28;20474;-71
2022/09/22 05:22:58;;;;;;;8.93;4.50;;;7.40;1.00;;;;;;5071035;28;20534;-69
2022/09/22 05:25:24;;;;;;;6.43;4.97;;;7.40;1.00;;;;;;5110294;28;20546;-73
2022/09/22 05:27:52;;;;;;;8.47;4.20;;;7.40;1.00;;;;;;5114120;28;20188;-70
2022/09/22 05:30:19;;;;;;;3.87;3.57;;;7.40;1.00;;;;;;5112964;28;20250;-69
2022/09/22 05:32:46;;;;;;;4.50;4.00;;;7.40;1.00;;;;;;5101596;28;20935;-74
2022/09/22 05:35:23;;;;;;;6.40;4.40;;;7.50;1.00;;;;;;5113015;28;20461;-74
2022/09/22 05:37:50;;;;;;;5.33;4.87;;;7.40;1.00;;;;;;5097433;28;20914;-74
2022/09/22 05:40:18;;;;;;;4.23;3.93;;;7.40;1.00;;;;;;5104876;27;20407;-74
2022/09/22 05:42:45;;;;;;;4.20;3.90;;;7.30;1.00;;;;;;5113040;28;20446;-74
2022/09/22 05:45:11;;;;;;;5.97;4.93;;;7.30;1.00;;;;;;5113135;28;20791;-73
2022/09/22 05:47:38;;;;;;;5.53;4.90;;;7.40;1.00;;;;;;5095992;28;20424;-69
2022/09/22 05:50:06;;;;;;;5.50;4.90;;;7.40;1.00;;;;;;5076299;28;20492;-74
2022/09/22 05:52:31;;;;;;;4.07;3.77;;;7.40;1.00;;;;;;5107151;28;20437;-73
2022/09/22 05:54:57;;;;;;;5.83;5.30;;;7.50;1.00;;;;;;5111743;28;20464;-68
2022/09/22 05:57:26;;;;;;;5.00;4.60;;;7.40;1.00;;;;;;5099504;28;20197;-72
2022/09/22 05:59:54;;;;;;;5.20;4.73;;;7.50;1.00;;;;;;5093966;28;20421;-72
2022/09/22 06:02:22;;;;;;;6.07;5.40;;;7.50;1.00;;;;;;5105057;28;20411;-73
2022/09/22 06:04:48;;;;;;;4.67;4.37;;;7.60;1.00;;;;;;5110975;28;20454;-73
2022/09/22 06:07:13;;;;;;;10.70;4.37;;;7.60;1.00;;;;;;5102126;28;20994;-70
2022/09/22 06:09:39;;;;;;;4.30;4.00;;;7.60;1.00;;;;;;5096264;28;20194;-73
2022/09/22 06:12:07;;;;;;;5.93;4.23;;;7.60;1.00;;;;;;5114197;28;20172;-69
2022/09/22 06:14:33;;;;;;;4.83;4.33;;;7.60;1.00;;;;;;5110705;28;20204;-74
2022/09/22 06:16:59;;;;;;;8.67;6.37;;;7.70;1.00;;;;;;5093750;28;20491;-74
2022/09/22 06:19:25;;;;;;;9.20;4.90;;;7.70;1.00;;;;;;5109197;28;20472;-70
2022/09/22 06:21:51;;;;;;;4.97;4.43;;;7.80;1.00;;;;;;5113381;28;20166;-74
2022/09/22 06:24:17;;;;;;;5.00;4.50;;;7.80;1.00;;;;;;5105189;28;20182;-69
2022/09/22 06:26:43;;;;;;;5.63;5.00;;;7.90;1.00;;;;;;5112975;28;20864;-69
2022/09/22 06:29:09;;;;;;;6.03;5.53;;;7.90;1.00;;;;;;5101504;28;20601;-70
2022/09/22 06:31:35;;;;;;;7.13;6.00;;;8.00;1.00;;;;;;5093496;28;20453;-70
2022/09/22 06:34:01;;;;;;;6.67;6.07;;;8.00;1.00;;;;;;5100520;28;20200;-73
2022/09/22 06:36:30;;;;;;;7.80;5.60;;;8.10;1.00;;;;;;5113807;28;20790;-75
2022/09/22 06:38:59;;;;;;;7.00;6.30;;;8.30;1.00;;;;;;5082453;28;20515;-72
2022/09/22 06:41:26;;;;;;;8.70;6.93;;;8.50;1.00;;;;;;5092855;28;20930;-69
2022/09/22 06:43:55;;;;;;;8.33;7.53;;;8.60;8.60;;;;;;5096721;28;21948;-71
2022/09/22 06:46:29;;;;;;;8.13;6.90;;;8.80;21.80;;;;;;5099244;28;20522;-74
2022/09/22 06:48:56;;;;;;;7.50;6.00;;;8.90;35.90;;;;;;5113582;28;20389;-71
2022/09/22 06:51:31;;;;;;;11.20;7.63;;;9.10;31.20;;;;;;5113613;28;20373;-74
2022/09/22 06:53:58;;;;;;;8.67;7.83;;;9.20;49.60;;;;;;5111501;28;20514;-71
2022/09/22 06:56:26;;;;;;;10.03;8.60;;;9.30;84.10;;;;;;5113282;28;20396;-74
2022/09/22 06:58:54;;;;;;;8.67;7.73;;;9.50;86.30;;;;;;5112651;28;20403;-72
2022/09/22 07:01:20;;;;;;;13.37;8.47;;;9.60;92.30;;;;;;5112159;28;20410;-71
2022/09/22 07:03:46;;;;;;;12.90;8.87;;;9.80;92.40;;;;;;5109664;28;20389;-70
2022/09/22 07:06:17;;;;;;;9.47;8.53;;;9.90;97.70;;;;;;5112551;28;20385;-71
2022/09/22 07:08:46;;;;;;;10.97;8.47;;;10.00;99.90;;;;;;5112599;28;20157;-74
2022/09/22 07:11:12;;;;;;;9.33;7.53;;;10.10;99.90;;;;;;5112668;28;20387;-74
2022/09/22 07:13:41;;;;;;;8.93;8.03;;;10.30;99.90;;;;;;5111728;28;20733;-75
2022/09/22 07:16:18;;;;;;;10.97;7.77;;;10.40;99.90;;;;;;5092128;28;20407;-71
2022/09/22 07:18:46;;;;;;;11.30;7.80;;;10.50;99.90;;;;;;5091685;28;20378;-74
2022/09/22 07:21:21;;;;;;;8.07;7.20;;;10.60;99.90;;;;;;5091948;28;20370;-73
2022/09/22 07:23:48;;;;;;;9.87;7.27;;;10.70;99.90;;;;;;5093978;28;20990;-71
2022/09/22 07:26:20;;;;;;;7.73;6.93;;;10.90;99.90;;;;;;5112261;28;20404;-70
2022/09/22 07:28:50;;;;;;;13.67;8.27;;;10.90;99.90;;;;;;5112364;28;20412;-74
2022/09/22 07:31:16;;;;;;;9.90;7.40;;;11.10;99.90;;;;;;5094178;28;20388;-70
2022/09/22 07:33:44;;;;;;;7.77;7.00;;;11.20;99.90;;;;;;5110207;28;20430;-71
2022/09/22 07:36:17;;;;;;;10.37;6.93;;;11.30;99.90;;;;;;5112183;28;20405;-74
2022/09/22 07:38:48;;;;;;;10.30;6.87;;;11.40;99.90;;;;;;5111622;28;20396;-72
2022/09/22 07:41:17;;;;;;;9.33;6.07;;;11.50;99.90;;;;;;5110121;28;20437;-73
2022/09/22 07:43:44;;;;;;;7.03;6.40;;;11.60;99.90;;;;;;5111518;28;20400;-75
2022/09/22 07:46:13;;;;;;;7.93;5.80;;;11.70;99.90;;;;;;5112076;28;20389;-74
2022/09/22 07:48:46;;;;;;;8.07;6.10;;;11.90;99.90;;;;;;5111990;28;20373;-74
2022/09/22 07:51:20;;;;;;;11.47;6.27;;;12.00;99.90;;;;;;5110117;28;20970;-74
2022/09/22 07:53:48;;;;;;;9.70;6.17;;;12.10;99.90;;;;;;5111077;28;20377;-71
2022/09/22 07:56:17;;;;;;;10.40;6.23;;;12.20;99.70;;;;;;5111388;28;20397;-71
2022/09/22 07:58:53;;;;;;;7.80;4.77;;;12.30;99.90;;;;;;5059369;28;1509271;-74
2022/09/22 08:01:21;;;;;;;6.20;5.60;;;12.50;99.90;;;;;;5111578;28;20381;-71
2022/09/22 08:03:47;;;;;;;7.67;6.20;;;12.60;99.90;;;;;;5108057;28;20461;-70
2022/09/22 08:06:15;;;;;;;6.53;5.40;;;12.70;99.20;;;;;;5112834;28;20813;-71
2022/09/22 08:08:47;;;;;;;7.23;6.40;;;12.80;99.90;;;;;;5106914;28;20252;-75
2022/09/22 08:11:16;;;;;;;6.00;5.40;;;12.90;95.20;;;;;;5110306;28;20487;-75
2022/09/22 08:13:49;;;;;;;5.70;4.70;;;13.00;99.90;;;;;;5090676;28;20723;-72
2022/09/22 08:16:36;;;;;;;7.97;4.50;;;13.10;97.40;;;;;;5110862;28;20807;-71
2022/09/22 08:19:09;;;;;;;4.33;3.93;;;13.30;93.20;;;;;;5096150;28;20454;-75
2022/09/22 08:21:35;;;;;;;9.00;3.63;;;13.40;79.10;;;;;;5096315;28;20465;-71
2022/09/22 08:24:06;;;;;;;5.07;3.57;;;13.60;70.20;;;;;;5107374;27;20760;-71
2022/09/22 08:26:35;;;;;;;4.50;3.27;;;13.80;56.20;;;;;;5096984;28;20753;-72
2022/09/22 08:29:02;;;;;;;6.83;3.20;;;14.00;51.00;;;;;;5101566;28;20782;-71
2022/09/22 08:31:28;;;;;;;5.50;2.93;;;14.10;59.60;;;;;;5108679;28;20423;-75
2022/09/22 08:33:55;;;;;;;4.00;2.47;;;14.20;9.20;;;;;;5105865;28;20487;-72
2022/09/22 08:36:22;;;;;;;2.90;2.30;;;14.40;1.00;;;;;;5106464;28;20470;-71
2022/09/22 08:38:48;;;;;;;2.93;2.73;;;14.50;1.00;;;;;;5115957;28;20452;-70
2022/09/22 08:41:23;;;;;;;2.87;2.67;;;14.70;1.00;;;;;;5111474;28;20446;-74
2022/09/22 08:43:56;;;;;;;2.50;2.13;;;14.80;1.00;;;;;;5109081;28;20430;-70
2022/09/22 08:46:29;;;;;;;3.13;2.17;;;15.10;1.00;;;;;;5115953;28;20423;-75
2022/09/22 08:51:55;;;;;;;6.63;2.33;;;15.50;1.00;;;;;;5109069;28;20818;-71
2022/09/22 08:54:27;;;;;;;6.23;1.90;;;15.70;1.00;;;;;;5114992;28;20787;-75
2022/09/22 08:57:13;;;;;;;15.43;2.60;;;15.80;1.00;;;;;;5115469;28;20441;-72
2022/09/22 08:59:46;;;;;;;6.40;1.83;;;16.00;1.00;;;;;;5110952;28;20454;-74
2022/09/22 09:02:35;;;;;;;4.73;1.53;;;16.10;1.00;;;;;;5114708;28;20514;-74
2022/09/22 09:05:27;;;;;;;2.10;1.90;;;16.30;1.00;;;;;;5112702;28;20458;-74
2022/09/22 09:08:01;;;;;;;1.67;1.00;;;16.40;1.00;;;;;;5114688;28;20419;-73
2022/09/22 09:10:54;;;;;;;6.97;2.07;;;16.60;1.00;;;;;;5115677;28;20415;-74
2022/09/22 09:13:40;;;;;;;3.40;1.40;;;16.90;1.00;;;;;;5114036;28;20403;-76
2022/09/22 09:16:13;;;;;;;4.90;1.33;;;17.20;1.00;;;;;;5094719;28;20520;-73
2022/09/22 09:18:44;;;;;;;2.03;1.10;;;17.40;1.00;;;;;;5094870;28;20430;-72
2022/09/22 09:21:14;;;;;;;3.50;1.30;;;17.70;1.00;;;;;;5094910;28;20404;-72
2022/09/22 09:23:51;;;;;;;2.73;1.47;;;17.90;1.00;;;;;;5094460;28;20406;-76
2022/09/22 09:26:17;;;;;;;2.90;1.47;;;18.20;1.00;;;;;;5093040;28;20427;-71
2022/09/22 09:32:57;;;;;;;;;;;;;;;;;;;;;
2022/09/22 09:35:55;;;;;;;2.93;1.27;;;18.50;1.00;;;;;;5020742;28;20480;-74
2022/09/22 09:38:32;;;;;;;4.10;1.13;;;18.70;1.00;;;;;;5031949;28;20410;-73
2022/09/22 09:41:51;;;;;;;2.07;1.10;;;18.80;1.00;;;;;;5089468;28;20425;-73
2022/09/22 09:44:42;;;;;;;1.90;0.90;;;18.90;1.00;;;;;;5068618;28;20404;-71
2022/09/22 09:47:53;;;;;;;;;;;;;;;;;;;;;
2022/09/22 09:50:46;;;;;;;;;;;;;;;;;;;;;
2022/09/22 09:53:29;;;;;;;4.03;1.10;;;19.70;1.00;;;;;;4992308;28;20427;-73
2022/09/22 09:55:57;;;;;;;2.10;1.50;;;19.90;1.00;;;;;;4975555;28;20899;-76
2022/09/22 10:01:53;;;;;;;1.47;1.00;;;20.10;1.00;;;;;;5094247;28;20403;-74
2022/09/22 10:04:47;;;;;;;2.03;1.13;;;20.10;1.00;;;;;;5074835;28;20787;-72
2022/09/22 10:07:38;;;;;;;1.30;1.17;;;20.40;1.00;;;;;;5094091;28;20415;-71
2022/09/22 10:10:40;;;;;;;3.30;1.07;;;19.90;1.00;;;;;;5093853;28;20412;-72
2022/09/22 10:13:27;;;;;;;2.03;1.10;;;19.30;1.00;;;;;;5094283;28;20403;-74
2022/09/22 10:16:18;;;;;;;1.43;1.33;;;19.60;1.00;;;;;;5093244;28;20537;-74
2022/09/22 10:18:44;;;;;;;4.43;1.37;;;20.40;1.00;;;;;;5075473;28;20426;-75
2022/09/22 10:21:20;;;;;;;1.40;1.10;;;20.60;1.00;;;;;;5074909;28;20439;-71
2022/09/22 10:23:54;;;;;;;3.93;1.70;;;20.80;1.00;;;;;;5092832;28;20173;-74
2022/09/22 10:29:58;;;;;;;4.87;1.10;;;20.00;1.00;;;;;;5061830;28;20429;-74
2022/09/22 10:32:53;;;;;;;2.67;1.50;;;19.50;1.00;;;;;;5113331;28;20414;-75
2022/09/22 10:35:29;;;;;;;3.60;1.90;;;19.00;1.00;;;;;;5080129;28;20465;-74
2022/09/22 10:38:25;;;;;;;7.03;1.67;;;18.60;1.00;;;;;;5112565;28;20481;-73
2022/09/22 10:41:26;;;;;;;1.20;1.00;;;18.40;1.00;;;;;;5101264;28;20752;-72
2022/09/22 10:44:21;;;;;;;1.67;1.30;;;19.10;1.00;;;;;;5112927;28;20894;-74
2022/09/22 10:47:32;;;;;;;3.00;1.67;;;19.90;1.00;;;;;;5106470;28;20437;-72
2022/09/22 10:50:27;;;;;;;3.90;1.23;;;19.80;1.00;;;;;;5093239;28;20938;-72
2022/09/22 10:53:38;;;;;;;1.40;1.07;;;19.30;1.00;;;;;;5093341;28;20396;-74
2022/09/22 10:56:38;;;;;;;5.63;2.23;;;19.10;1.00;;;;;;5092035;28;20455;-74
2022/09/22 11:00:23;;;;;;;1.97;1.57;;;18.80;1.00;;;;;;5093350;28;20407;-75
2022/09/22 11:02:50;;;;;;;1.60;1.30;;;18.60;1.00;;;;;;5084972;28;20408;-73
2022/09/22 11:12:17;;;;;;;2.23;1.30;;;18.20;1.00;;;;;;5102312;28;20827;-75
2022/09/22 11:14:49;;;;;;;2.27;1.20;;;18.00;1.00;;;;;;5111774;28;20444;-72
2022/09/22 11:17:43;;;;;;;4.03;1.63;;;18.30;1.00;;;;;;5113052;28;20395;-75
2022/09/22 11:20:15;;;;;;;1.60;1.10;;;18.60;1.00;;;;;;5113262;28;20421;-75
2022/09/22 11:22:53;;;;;;;4.73;1.40;;;18.80;1.00;;;;;;5094275;28;20420;-73
2022/09/22 11:25:43;;;;;;;3.33;1.87;;;18.80;1.00;;;;;;5091966;28;20798;-74
2022/09/22 11:28:27;;;;;;;1.83;1.50;;;18.60;1.00;;;;;;5092859;28;20755;-72
2022/09/22 11:30:56;;;;;;;5.20;1.87;;;18.30;1.00;;;;;;5093164;28;20464;-74
2022/09/22 11:33:37;;;;;;;4.47;3.90;;;18.10;1.00;;;;;;5092019;28;20427;-76
2022/09/22 11:36:21;;;;;;;1.57;1.47;;;17.90;1.00;;;;;;5092450;28;20472;-72
2022/09/22 11:39:29;;;;;;;2.27;1.73;;;17.70;1.00;;;;;;5092706;28;20434;-72
2022/09/22 11:42:13;;;;;;;4.33;1.13;;;17.50;1.00;;;;;;5102305;28;20471;-75
2022/09/22 11:45:06;;;;;;;3.20;1.63;;;17.60;1.00;;;;;;5112118;28;20438;-74
2022/09/22 11:48:09;;;;;;;2.30;1.37;;;17.90;1.00;;;;;;5113202;28;20755;-74
2022/09/22 11:50:42;;;;;;;1.70;1.13;;;18.20;1.00;;;;;;5115057;28;20417;-72
2022/09/22 11:53:41;;;;;;;5.53;1.50;;;18.30;1.00;;;;;;5116800;28;20444;-76
2022/09/22 11:56:37;;;;;;;5.17;2.53;;;18.30;1.00;;;;;;5116732;28;20456;-73
2022/09/22 11:59:37;;;;;;;3.00;1.50;;;18.20;1.00;;;;;;5098605;28;20430;-74
2022/09/22 12:02:16;;;;;;;3.10;0.97;;;18.40;1.00;;;;;;5090354;28;20427;-75
2022/09/22 12:04:45;;;;;;;3.83;1.63;;;18.80;1.00;;;;;;5115659;28;20805;-75
2022/09/22 12:07:28;;;;;;;1.33;1.23;;;19.10;1.00;;;;;;5112538;28;20910;-74
2022/09/22 12:10:12;;;;;;;1.33;1.20;;;19.60;1.00;;;;;;5106384;28;20434;-75
2022/09/22 12:12:50;;;;;;;2.30;1.80;;;19.70;1.00;;;;;;5096073;28;20415;-73
2022/09/22 12:15:41;;;;;;;1.87;1.67;;;19.90;1.00;;;;;;5094994;28;20463;-77
2022/09/22 12:18:13;;;;;;;6.60;1.50;;;19.80;1.00;;;;;;5086365;28;20435;-75
2022/09/22 12:21:00;;;;;;;4.23;1.73;;;19.90;1.00;;;;;;5095955;28;20764;-73
2022/09/22 12:23:36;;;;;;;3.10;1.20;;;20.20;1.00;;;;;;5095879;28;20426;-74
2022/09/22 12:29:29;;;;;;;4.40;1.33;;;20.40;1.00;;;;;;5039504;28;20441;-72
2022/09/22 12:31:57;;;;;;;3.63;1.27;;;20.20;1.00;;;;;;5114531;28;20426;-74
2022/09/22 12:38:02;;;;;;;3.53;1.33;;;20.00;1.00;;;;;;5095538;27;20518;-74
2022/09/22 12:40:41;;;;;;;;;;;;;;;;;;;;;
2022/09/22 12:43:19;;;;;;;1.63;1.50;;;20.00;1.00;;;;;;5095362;28;20419;-74
2022/09/22 12:45:46;;;;;;;1.90;1.70;;;19.40;1.00;;;;;;5109459;28;20513;-74
2022/09/22 12:48:17;;;;;;;2.50;1.70;;;19.10;1.00;;;;;;5114566;28;20415;-74
2022/09/22 12:50:44;;;;;;;3.80;1.30;;;19.00;1.00;;;;;;5115770;28;20418;-74
2022/09/22 12:53:22;;;;;;;1.73;1.40;;;19.10;1.00;;;;;;5115541;28;20407;-71
2022/09/22 12:55:55;;;;;;;1.93;1.50;;;19.60;1.00;;;;;;5096806;28;20480;-74
2022/09/22 12:58:22;;;;;;;1.63;1.13;;;19.70;1.00;;;;;;5097016;28;20435;-73
2022/09/22 13:00:49;;;;;;;7.83;1.50;;;19.80;1.00;;;;;;5095110;28;20418;-74
2022/09/22 13:03:24;;;;;;;1.57;1.47;;;20.20;1.00;;;;;;5095583;28;20518;-72
2022/09/22 13:05:54;;;;;;;3.40;2.10;;;20.50;1.00;;;;;;5093797;28;20431;-71
2022/09/22 13:08:44;;;;;;;1.47;1.20;;;20.50;1.00;;;;;;5096922;27;20419;-75
2022/09/22 13:11:10;;;;;;;5.40;1.30;;;21.30;1.00;;;;;;5094652;28;20411;-72
2022/09/22 13:13:47;;;;;;;1.40;1.00;;;22.20;1.00;;;;;;5094783;28;20585;-77
2022/09/22 13:16:13;;;;;;;2.30;1.33;;;22.60;1.00;;;;;;5094942;28;20695;-75
2022/09/22 13:18:59;;;;;;;1.57;1.47;;;23.10;1.00;;;;;;5111551;28;20430;-73
2022/09/22 13:21:30;;;;;;;1.57;1.20;;;23.60;1.00;;;;;;5114711;28;20663;-74
2022/09/22 13:23:58;;;;;;;2.47;0.90;;;23.80;1.00;;;;;;5113890;28;20418;-76
2022/09/22 13:26:40;;;;;;;3.40;1.23;;;23.90;1.00;;;;;;5111930;28;20447;-74
2022/09/22 13:29:14;;;;;;;3.23;1.00;;;24.00;1.00;;;;;;5115096;28;20413;-74
2022/09/22 13:31:54;;;;;;;4.00;1.13;;;23.80;1.00;;;;;;5113290;28;20841;-75
2022/09/22 13:34:30;;;;;;;2.80;1.40;;;23.50;1.00;;;;;;5114078;28;20462;-74
2022/09/22 13:37:00;;;;;;;3.20;2.00;;;22.90;1.00;;;;;;5115015;28;20477;-74
2022/09/22 13:39:29;;;;;;;3.40;1.50;;;21.90;1.00;;;;;;5096547;28;20411;-74
2022/09/22 13:42:03;;;;;;;1.67;1.20;;;21.60;1.00;;;;;;5113044;28;20438;-74
2022/09/22 13:44:33;;;;;;;1.87;1.50;;;21.60;1.00;;;;;;5112805;28;20405;-73
2022/09/22 13:47:03;;;;;;;1.50;1.27;;;21.80;1.00;;;;;;5114937;28;20456;-75
2022/09/22 13:49:35;;;;;;;3.37;1.27;;;22.00;1.00;;;;;;5096635;28;20411;-77
2022/09/22 13:52:15;;;;;;;9.03;1.60;;;21.90;1.00;;;;;;5113035;28;20438;-76
2022/09/22 13:54:43;;;;;;;3.10;1.30;;;21.80;1.00;;;;;;5113493;28;21007;-73
2022/09/22 13:57:28;;;;;;;3.30;1.23;;;21.80;1.00;;;;;;5114373;28;20505;-74
2022/09/22 13:59:56;;;;;;;2.40;1.50;;;21.70;1.00;;;;;;5112845;28;20403;-72
2022/09/22 14:02:24;;;;;;;1.20;1.03;;;21.70;1.00;;;;;;5094768;28;20469;-75
2022/09/22 14:04:56;;;;;;;1.93;1.40;;;21.80;1.00;;;;;;5092127;28;20895;-75
2022/09/22 14:07:26;;;;;;;1.70;1.40;;;21.80;1.00;;;;;;5093485;28;20407;-73
2022/09/22 14:09:53;;;;;;;2.70;1.50;;;21.70;1.00;;;;;;5113107;28;20441;-76